Latest Weather Observations for Burnie Port

IDT60801

Issued at 9:31 pm EDT Thursday 11 February 2016 (issued every 30 minutes, with the page automatically refreshed every 10 minutes)

About weather observations | Map of weather stations | Latest weather observations for TAS | Other Formats
Station Details ID: 091344 Name: BURNIE NTC AWS Lat: -41.05 Lon: 145.91 Height: 0.0 m
Data from the previous 72 hours. | See also: Recent months for locations in Tasmania
Date/Time
EDT
Temp
°C
App
Temp
°C
Dew
Point
Rel
Hum
%
Delta-T
°C
Wind Press
QNH
hPa
Press
MSL
hPa
Rain
since 9 am
mm
Dir
 
Spd
km/h
Gust
km/h
Spd
kts
Gust
kts
11/09:30pm 19.6 - - - - SE 19 22 10 12 1015.9 1015.9 -
11/09:00pm 19.7 - - - - SE 19 22 10 12 1015.6 1015.6 -
11/08:30pm 19.8 - - - - SE 20 24 11 13 1015.4 1015.4 -
11/08:00pm 19.9 - - - - ESE 17 20 9 11 1015.1 1015.1 -
11/07:30pm 19.9 - - - - E 15 17 8 9 1014.7 1014.7 -
11/07:00pm 20.0 - - - - E 15 17 8 9 1014.6 1014.6 -
11/06:30pm 20.2 - - - - ESE 11 15 6 8 1014.4 1014.4 -
11/06:00pm 20.4 - - - - ENE 7 13 4 7 1014.4 1014.4 -
11/05:30pm 20.5 - - - - NE 11 15 6 8 1014.2 1014.2 -
11/05:00pm 20.5 - - - - N 11 13 6 7 1014.4 1014.4 -
11/04:30pm 20.5 - - - - N 11 15 6 8 1014.3 1014.3 -
11/04:00pm 20.5 - - - - N 11 15 6 8 1014.5 1014.5 -
11/03:30pm 20.2 - - - - NNW 15 17 8 9 1014.6 1014.6 -
11/03:00pm 20.0 - - - - NNW 15 17 8 9 1014.7 1014.7 -
11/02:30pm 20.2 - - - - NNW 11 15 6 8 1015.0 1015.0 -
11/02:00pm 20.0 - - - - N 9 11 5 6 1015.1 1015.1 -
11/01:30pm 19.7 - - - - NNW 11 13 6 7 1015.1 1015.1 -
11/01:00pm 19.6 - - - - N 11 15 6 8 1015.0 1015.0 -
11/12:30pm 19.6 - - - - NNE 13 17 7 9 1015.3 1015.3 -
11/12:00pm 19.4 - - - - NE 15 19 8 10 1015.3 1015.3 -
11/11:30am 19.4 - - - - NNE 11 15 6 8 1015.5 1015.5 -
11/11:00am 19.3 - - - - NNE 7 9 4 5 1015.7 1015.7 -
11/10:30am 19.1 - - - - NNE 7 9 4 5 1015.8 1015.8 -
11/10:00am 19.3 - - - - E 7 9 4 5 1015.6 1015.6 -
11/09:30am 19.1 - - - - S 13 19 7 10 1015.5 1015.5 -
11/09:00am 18.2 - - - - SSW 9 15 5 8 1015.4 1015.4 -
11/08:30am 17.3 - - - - SSW 17 22 9 12 1015.2 1015.2 -
11/08:00am 16.6 - - - - SSW 19 24 10 13 1015.1 1015.1 -
11/07:30am 16.1 - - - - SSW 19 26 10 14 1014.7 1014.7 -
11/07:00am 15.8 - - - - SW 15 24 8 13 1014.6 1014.6 -
11/06:30am 15.9 - - - - WSW 13 19 7 10 1014.6 1014.6 -
11/06:00am 16.1 - - - - WSW 15 20 8 11 1014.4 1014.4 -
11/05:30am 16.1 - - - - WSW 9 15 5 8 1014.2 1014.2 -
11/05:00am 15.8 - - - - W 11 17 6 9 1014.0 1014.0 -
11/04:30am 16.3 - - - - W 13 19 7 10 1013.8 1013.8 -
11/04:00am 15.7 - - - - SW 7 9 4 5 1013.7 1013.7 -
11/03:30am 16.6 - - - - WSW 13 17 7 9 1013.6 1013.6 -
11/03:00am 16.6 - - - - W 11 17 6 9 1013.9 1013.9 -
11/02:30am 16.7 - - - - WSW 15 20 8 11 1014.0 1014.0 -
11/02:00am 17.1 - - - - SW 7 17 4 9 1014.0 1014.0 -
11/01:30am 17.0 - - - - SW 13 20 7 11 1013.9 1013.9 -
11/01:00am 17.3 - - - - SW 17 26 9 14 1014.0 1014.0 -
11/12:30am 17.2 - - - - SSW 22 35 12 19 1013.6 1013.6 -
11/12:00am 17.6 - - - - SW 24 41 13 22 1013.2 1013.2 -
 
Date/Time
EDT
Temp
°C
App
Temp
°C
Dew
Point
Rel
Hum
%
Delta-T
°C
Wind Press
QNH
hPa
Press
MSL
hPa
Rain
since 9 am
mm
Dir
 
Spd
km/h
Gust
km/h
Spd
kts
Gust
kts
10/11:30pm 17.7 - - - - WSW 26 37 14 20 1013.2 1013.2 -
10/11:00pm 17.9 - - - - SW 24 35 13 19 1013.4 1013.4 -
10/10:30pm 17.9 - - - - WSW 24 39 13 21 1013.3 1013.3 -
10/10:00pm 18.2 - - - - WSW 15 26 8 14 1013.4 1013.4 -
10/09:30pm 18.3 - - - - W 15 24 8 13 1013.3 1013.3 -
10/09:00pm 18.9 - - - - W 9 17 5 9 1013.0 1013.0 -
10/08:30pm 19.4 - - - - WSW 13 24 7 13 1012.7 1012.7 -
10/08:00pm 19.6 - - - - WSW 24 35 13 19 1012.4 1012.4 -
10/07:30pm 20.8 - - - - SW 19 32 10 17 1011.9 1011.9 -
10/07:00pm 21.1 - - - - SW 24 39 13 21 1011.6 1011.6 -
10/06:30pm 21.6 - - - - SW 26 37 14 20 1011.1 1011.1 -
10/06:00pm 22.6 - - - - SW 24 35 13 19 1010.8 1010.8 -
10/05:30pm 23.5 - - - - WSW 22 33 12 18 1010.4 1010.4 -
10/05:00pm 23.3 - - - - SW 24 35 13 19 1010.2 1010.2 -
10/04:30pm 24.1 - - - - SW 17 30 9 16 1010.1 1010.1 -
10/04:00pm 24.1 - - - - SW 17 32 9 17 1010.3 1010.3 -
10/03:30pm 24.0 - - - - SW 17 28 9 15 1010.5 1010.5 -
10/03:00pm 24.5 - - - - SW 15 28 8 15 1010.7 1010.7 -
10/02:30pm 24.5 - - - - W 22 37 12 20 1010.9 1010.9 -
10/02:00pm 23.4 - - - - W 15 26 8 14 1011.0 1011.0 -
10/01:30pm 23.6 - - - - W 17 26 9 14 1011.3 1011.3 -
10/01:00pm 23.1 - - - - WSW 13 20 7 11 1011.7 1011.7 -
10/12:30pm 22.3 - - - - WNW 13 22 7 12 1012.2 1012.2 -
10/12:00pm 21.5 - - - - W 15 24 8 13 1012.5 1012.5 -
10/11:30am 20.9 - - - - WSW 13 24 7 13 1012.8 1012.8 -
10/11:00am 20.3 - - - - WSW 15 24 8 13 1013.1 1013.1 -
10/10:30am 19.7 - - - - WSW 9 17 5 9 1013.2 1013.2 -
10/10:00am 19.7 - - - - SW 6 15 3 8 1013.2 1013.2 -
10/09:30am 18.2 - - - - SW 11 20 6 11 1013.1 1013.1 -
10/09:00am 17.3 - - - - SSW 22 32 12 17 1013.3 1013.3 -
10/08:30am 15.9 - - - - SSW 20 28 11 15 1013.2 1013.2 -
10/08:00am 15.2 - - - - SSW 19 32 10 17 1013.0 1013.0 -
10/07:30am 15.1 - - - - SW 15 19 8 10 1012.8 1012.8 -
10/07:00am 14.7 - - - - SSW 9 17 5 9 1012.6 1012.6 -
10/06:30am 15.4 - - - - SW 11 17 6 9 1012.8 1012.8 -
10/06:00am 15.5 - - - - SSW 11 13 6 7 1012.7 1012.7 -
10/05:30am 16.2 - - - - SW 9 13 5 7 1012.7 1012.7 -
10/05:00am 15.8 - - - - SSW 9 11 5 6 1012.7 1012.7 -
10/04:30am 16.0 - - - - SSW 7 9 4 5 1013.0 1013.0 -
10/04:00am 16.2 - - - - SSW 7 9 4 5 1013.2 1013.2 -
10/03:30am 17.1 - - - - SW 7 9 4 5 1013.3 1013.3 -
10/03:00am 17.2 - - - - SSW 6 7 3 4 1013.4 1013.4 -
10/02:30am 17.2 - - - - SSW 9 11 5 6 1013.6 1013.6 -
10/02:00am 17.5 - - - - SSW 9 15 5 8 1014.0 1014.0 -
10/01:30am 17.5 - - - - SSW 7 11 4 6 1014.3 1014.3 -
10/01:00am 17.5 - - - - SSW 9 13 5 7 1014.8 1014.8 -
10/12:30am 18.0 - - - - SSE 6 7 3 4 1015.1 1015.1 -
10/12:00am 17.9 - - - - S 6 7 3 4 1015.3 1015.3 -
 
Date/Time
EDT
Temp
°C
App
Temp
°C
Dew
Point
Rel
Hum
%
Delta-T
°C
Wind Press
QNH
hPa
Press
MSL
hPa
Rain
since 9 am
mm
Dir
 
Spd
km/h
Gust
km/h
Spd
kts
Gust
kts
09/11:30pm 18.2 - - - - SSW 7 9 4 5 1015.3 1015.3 -
09/11:00pm 18.4 - - - - SSW 9 9 5 5 1015.5 1015.5 -
09/10:30pm 18.8 - - - - S 6 7 3 4 1015.9 1015.9 -
09/10:00pm 18.9 - - - - S 7 9 4 5 1016.2 1016.2 -
09/09:30pm 19.3 - - - - ENE 2 2 1 1 1016.1 1016.1 -
09/09:00pm 19.2 - - - - NE 2 4 1 2 1016.1 1016.1 -
09/08:30pm 19.3 - - - - NW 2 4 1 2 1016.3 1016.3 -
09/08:00pm 19.3 - - - - N 2 4 1 2 1016.3 1016.3 -
09/07:30pm 19.3 - - - - N 4 6 2 3 1016.4 1016.4 -
09/07:00pm 19.3 - - - - N 4 7 2 4 1016.5 1016.5 -
09/06:30pm 19.3 - - - - N 6 9 3 5 1016.4 1016.4 -
09/06:00pm 19.3 - - - - NNE 6 9 3 5 1016.8 1016.8 -
09/05:30pm 19.3 - - - - NE 7 11 4 6 1016.9 1016.9 -
09/05:00pm 19.3 - - - - NE 9 13 5 7 1017.2 1017.2 -
09/04:30pm 19.4 - - - - NE 11 15 6 8 1017.4 1017.4 -
09/04:00pm 19.6 - - - - ENE 9 17 5 9 1017.8 1017.8 -
09/03:30pm 19.5 - - - - ENE 13 19 7 10 1018.0 1018.0 -
09/03:00pm 19.7 - - - - E 13 20 7 11 1018.4 1018.4 -
09/02:30pm 19.7 - - - - ENE 11 17 6 9 1018.9 1018.9 -
09/02:00pm 19.8 - - - - ENE 9 15 5 8 1019.3 1019.3 -
09/01:30pm 19.8 - - - - E 11 15 6 8 1019.5 1019.5 -
09/01:00pm 19.9 - - - - ENE 11 19 6 10 1019.6 1019.6 -
09/12:30pm 20.3 - - - - ESE 20 26 11 14 1019.9 1019.9 -
09/12:00pm 20.3 - - - - ESE 22 28 12 15 1020.2 1020.2 -
09/11:30am 20.4 - - - - ESE 22 28 12 15 1020.2 1020.2 -
09/11:00am 20.3 - - - - ESE 22 26 12 14 1020.4 1020.4 -
09/10:30am 20.3 - - - - ESE 22 28 12 15 1020.5 1020.5 -
09/10:00am 20.3 - - - - ESE 24 32 13 17 1020.4 1020.4 -
09/09:30am 20.2 - - - - SE 22 28 12 15 1020.5 1020.5 -
09/09:00am 20.4 - - - - SE 22 37 12 20 1020.5 1020.5 -

Other Formats:

Comma delimited format used in spreadsheet applications
http://www.bom.gov.au/fwo/IDT60801/IDT60801.95963.axf

JavaScript Object Notation format (JSON) in row-major order
http://www.bom.gov.au/fwo/IDT60801/IDT60801.95963.json